createdAt,value
2017-09-24T00:00:54.561Z,0.00
2017-09-24T00:01:54.577Z,0.00
2017-09-24T00:03:48.028Z,0.00
2017-09-24T00:04:48.011Z,0.00
2017-09-24T00:06:42.403Z,0.00
2017-09-24T00:07:42.419Z,0.00
2017-09-24T00:09:35.818Z,0.00
2017-09-24T00:10:35.828Z,0.00
2017-09-24T00:12:29.220Z,0.00
2017-09-24T00:13:29.236Z,0.00
2017-09-24T00:15:22.665Z,0.00
2017-09-24T00:16:22.653Z,0.00
2017-09-24T00:18:16.071Z,0.00
2017-09-24T00:19:16.093Z,0.00
2017-09-24T00:21:09.456Z,0.00
2017-09-24T00:22:09.495Z,0.00
2017-09-24T00:24:02.882Z,0.00
2017-09-24T00:25:02.877Z,0.00
2017-09-24T00:26:56.253Z,0.00
2017-09-24T00:27:56.276Z,0.00
2017-09-24T00:29:49.715Z,0.00
2017-09-24T00:30:49.672Z,0.00
2017-09-24T00:32:43.079Z,0.00
2017-09-24T00:33:43.100Z,0.00
2017-09-24T00:35:37.474Z,0.00
2017-09-24T00:36:37.484Z,0.00
2017-09-24T00:38:31.916Z,0.00
2017-09-24T00:39:31.894Z,0.00
2017-09-24T00:41:26.297Z,0.00
2017-09-24T00:42:26.299Z,0.00
2017-09-24T00:44:19.682Z,0.00
2017-09-24T00:45:19.727Z,0.00
2017-09-24T00:47:13.121Z,0.00
2017-09-24T00:48:13.078Z,0.00
2017-09-24T00:50:06.519Z,0.00
2017-09-24T00:51:06.500Z,0.00
2017-09-24T00:52:59.898Z,0.00
2017-09-24T00:53:59.908Z,0.00
2017-09-24T00:55:53.286Z,0.00
2017-09-24T00:56:53.318Z,0.00
2017-09-24T00:58:46.717Z,0.00
2017-09-24T00:59:46.721Z,0.00
2017-09-24T01:01:40.134Z,0.00
2017-09-24T01:02:40.122Z,0.00
2017-09-24T01:04:33.524Z,0.00
2017-09-24T01:05:33.531Z,0.00
2017-09-24T01:07:27.562Z,0.00
2017-09-24T01:08:27.592Z,0.00
2017-09-24T01:10:20.967Z,0.00
2017-09-24T01:11:20.973Z,0.00
2017-09-24T01:13:14.377Z,0.00
2017-09-24T01:14:14.357Z,0.00
2017-09-24T01:16:07.809Z,0.00
2017-09-24T01:17:07.798Z,0.00
2017-09-24T01:19:01.190Z,0.00
2017-09-24T01:20:01.190Z,0.00
2017-09-24T01:21:54.595Z,0.00
2017-09-24T01:22:54.597Z,0.00
2017-09-24T01:24:47.988Z,0.00
2017-09-24T01:25:48.024Z,0.00
2017-09-24T01:27:41.416Z,0.00
2017-09-24T01:28:41.400Z,0.00
2017-09-24T01:30:34.796Z,0.00
2017-09-24T01:31:34.810Z,0.00
2017-09-24T01:33:29.201Z,0.00
2017-09-24T01:34:29.207Z,0.00
2017-09-24T01:36:23.597Z,0.00
2017-09-24T01:37:23.598Z,0.00
2017-09-24T01:39:17.027Z,0.00
2017-09-24T01:40:16.999Z,0.00
2017-09-24T01:42:11.390Z,0.00
2017-09-24T01:43:11.413Z,0.00
2017-09-24T01:45:04.815Z,0.00
2017-09-24T01:46:04.817Z,0.00
2017-09-24T01:47:58.191Z,0.00
2017-09-24T01:48:58.219Z,0.00
2017-09-24T01:50:51.646Z,0.00
2017-09-24T01:51:51.627Z,0.00
2017-09-24T01:53:45.018Z,0.00
2017-09-24T01:54:45.016Z,0.00
2017-09-24T01:56:38.429Z,0.00
2017-09-24T01:57:38.435Z,0.00
2017-09-24T01:59:31.823Z,0.00
2017-09-24T02:00:31.813Z,0.00
2017-09-24T02:02:26.242Z,0.00
2017-09-24T02:03:26.242Z,0.00
2017-09-24T02:05:19.648Z,0.00
2017-09-24T02:06:19.673Z,0.00
2017-09-24T02:08:13.284Z,0.00
2017-09-24T02:09:13.263Z,0.00
2017-09-24T02:11:06.684Z,0.00
2017-09-24T02:12:06.681Z,0.00
2017-09-24T02:14:00.106Z,0.00
2017-09-24T02:15:00.088Z,0.00
2017-09-24T02:16:53.473Z,0.00
2017-09-24T02:17:53.489Z,0.00
2017-09-24T02:19:47.875Z,0.00
2017-09-24T02:20:47.894Z,0.00
2017-09-24T02:22:41.284Z,0.00
2017-09-24T02:23:41.292Z,0.00
2017-09-24T02:25:34.732Z,0.00
2017-09-24T02:26:34.723Z,0.00
2017-09-24T02:28:28.094Z,0.00
2017-09-24T02:29:28.131Z,0.00
2017-09-24T02:31:22.511Z,0.00
2017-09-24T02:32:22.525Z,0.00
2017-09-24T02:34:16.931Z,0.00
2017-09-24T02:35:16.918Z,0.00
2017-09-24T02:37:10.353Z,0.00
2017-09-24T02:38:10.332Z,0.00
2017-09-24T02:40:03.698Z,0.00
2017-09-24T02:41:03.743Z,0.00
2017-09-24T02:42:57.152Z,0.00
2017-09-24T02:43:57.127Z,0.00
2017-09-24T02:45:50.526Z,0.00
2017-09-24T02:46:50.536Z,0.00
2017-09-24T02:48:43.974Z,0.00
2017-09-24T02:49:43.946Z,0.00
2017-09-24T02:51:37.325Z,0.00
2017-09-24T02:52:37.348Z,0.00
2017-09-24T02:54:31.749Z,0.00
2017-09-24T02:55:31.773Z,0.00
2017-09-24T02:57:25.124Z,0.00
2017-09-24T02:58:25.155Z,0.00
2017-09-24T03:00:18.595Z,0.00
2017-09-24T03:01:18.576Z,0.00
2017-09-24T03:03:12.999Z,0.00
2017-09-24T03:04:12.966Z,0.00
2017-09-24T03:06:07.308Z,0.00
2017-09-24T03:07:07.280Z,0.00
2017-09-24T03:09:01.679Z,0.00
2017-09-24T03:10:01.713Z,0.00
2017-09-24T03:11:56.118Z,0.00
2017-09-24T03:12:56.087Z,0.00
2017-09-24T03:14:49.500Z,0.00
2017-09-24T03:15:49.516Z,0.00
2017-09-24T03:17:43.929Z,0.00
2017-09-24T03:18:43.877Z,0.00
2017-09-24T03:20:37.317Z,0.00
2017-09-24T03:21:37.297Z,0.00
2017-09-24T03:23:30.730Z,0.00
2017-09-24T03:24:30.729Z,0.00
2017-09-24T03:26:24.111Z,0.00
2017-09-24T03:27:24.118Z,0.00
2017-09-24T03:29:18.561Z,0.00
2017-09-24T03:30:18.523Z,0.00
2017-09-24T03:32:11.897Z,0.00
2017-09-24T03:33:11.898Z,0.00
2017-09-24T03:35:05.340Z,0.00
2017-09-24T03:36:05.316Z,0.00
2017-09-24T03:37:58.722Z,0.00
2017-09-24T03:38:58.725Z,0.00
2017-09-24T03:40:52.167Z,0.00
2017-09-24T03:41:52.138Z,0.00
2017-09-24T03:43:46.514Z,0.00
2017-09-24T03:44:46.548Z,0.00
2017-09-24T03:46:39.976Z,0.00
2017-09-24T03:47:39.948Z,0.00
2017-09-24T03:49:33.362Z,0.00
2017-09-24T03:50:33.390Z,0.00
2017-09-24T03:52:27.782Z,0.00
2017-09-24T03:53:27.725Z,0.00
2017-09-24T03:55:21.124Z,0.00
2017-09-24T03:56:21.141Z,0.00
2017-09-24T03:58:14.549Z,0.00
2017-09-24T03:59:14.559Z,0.00
2017-09-24T04:01:09.159Z,0.00
2017-09-24T04:02:09.174Z,0.00
2017-09-24T04:04:02.620Z,0.00
2017-09-24T04:05:02.577Z,0.00
2017-09-24T04:06:56.962Z,0.00
2017-09-24T04:07:56.971Z,0.00
2017-09-24T04:09:50.400Z,0.00
2017-09-24T04:10:50.378Z,0.00
2017-09-24T04:12:43.782Z,0.00
2017-09-24T04:13:43.758Z,0.00
2017-09-24T04:15:37.201Z,0.00
2017-09-24T04:16:37.255Z,0.00
2017-09-24T04:18:31.552Z,0.00
2017-09-24T04:19:31.593Z,0.00
2017-09-24T04:21:25.042Z,0.00
2017-09-24T04:22:25.024Z,0.00
2017-09-24T04:24:18.367Z,0.00
2017-09-24T04:25:18.370Z,0.00
2017-09-24T04:27:12.792Z,0.00
2017-09-24T04:28:12.779Z,0.00
2017-09-24T04:30:07.171Z,0.00
2017-09-24T04:31:07.194Z,0.00
2017-09-24T04:33:00.593Z,0.00
2017-09-24T04:34:00.624Z,0.00
2017-09-24T04:35:53.994Z,0.00
2017-09-24T04:36:54.005Z,0.00
2017-09-24T04:38:47.451Z,0.00
2017-09-24T04:39:47.401Z,0.00
2017-09-24T04:41:40.819Z,0.00
2017-09-24T04:42:40.827Z,0.00
2017-09-24T04:44:34.247Z,0.00
2017-09-24T04:45:34.225Z,0.00
2017-09-24T04:47:28.618Z,0.00
2017-09-24T04:48:28.611Z,4.00
2017-09-24T04:50:22.045Z,0.00
2017-09-24T04:51:22.050Z,4.00
2017-09-24T04:53:15.420Z,4.00
2017-09-24T04:54:15.477Z,4.00
2017-09-24T04:56:08.842Z,8.00
2017-09-24T04:57:08.838Z,12.00
2017-09-24T04:59:02.244Z,12.00
2017-09-24T05:00:02.206Z,12.00
2017-09-24T05:01:55.647Z,16.00
2017-09-24T05:02:55.623Z,24.00
2017-09-24T05:04:49.028Z,28.00
2017-09-24T05:05:49.038Z,32.00
2017-09-24T05:07:42.493Z,40.00
2017-09-24T05:08:42.449Z,44.00
2017-09-24T05:10:35.878Z,52.00
2017-09-24T05:11:35.871Z,60.00
2017-09-24T05:13:29.299Z,68.00
2017-09-24T05:14:29.270Z,72.00
2017-09-24T05:16:22.708Z,84.00
2017-09-24T05:17:22.700Z,96.00
2017-09-24T05:19:16.116Z,112.00
2017-09-24T05:20:16.079Z,124.00
2017-09-24T05:22:09.465Z,140.00
2017-09-24T05:23:09.494Z,152.00
2017-09-24T05:25:02.923Z,172.00
2017-09-24T05:26:02.922Z,180.00
2017-09-24T05:27:57.284Z,196.00
2017-09-24T05:28:57.313Z,204.00
2017-09-24T05:30:51.770Z,228.00
2017-09-24T05:31:51.710Z,236.00
2017-09-24T05:33:46.142Z,260.00
2017-09-24T05:34:46.109Z,272.00
2017-09-24T05:36:39.516Z,300.00
2017-09-24T05:37:39.522Z,312.00
2017-09-24T05:39:32.910Z,340.00
2017-09-24T05:40:32.907Z,356.00
2017-09-24T05:42:26.324Z,392.00
2017-09-24T05:43:26.303Z,412.00
2017-09-24T05:45:19.691Z,464.00
2017-09-24T05:46:19.704Z,492.00
2017-09-24T05:48:13.162Z,556.00
2017-09-24T05:49:13.111Z,596.00
2017-09-24T05:51:06.507Z,668.00
2017-09-24T05:52:06.528Z,700.00
2017-09-24T05:54:00.901Z,740.00
2017-09-24T05:55:00.913Z,756.00
2017-09-24T05:56:54.332Z,768.00
2017-09-24T05:57:54.311Z,772.00
2017-09-24T05:59:47.773Z,792.00
2017-09-24T06:00:47.740Z,804.00
2017-09-24T06:02:41.094Z,848.00
2017-09-24T06:03:41.124Z,856.00
2017-09-24T06:05:34.571Z,852.00
2017-09-24T06:06:42.144Z,844.00
2017-09-24T06:08:27.947Z,848.00
2017-09-24T06:09:27.898Z,844.00
2017-09-24T06:11:21.347Z,828.00
2017-09-24T06:12:21.359Z,804.00
2017-09-24T06:14:16.155Z,764.00
2017-09-24T06:15:16.873Z,748.00
2017-09-24T06:17:09.157Z,704.00
2017-09-24T06:18:09.176Z,676.00
2017-09-24T06:20:05.075Z,632.00
2017-09-24T06:21:02.529Z,628.00
2017-09-24T06:22:55.950Z,640.00
2017-09-24T06:23:55.949Z,656.00
2017-09-24T06:25:49.367Z,696.00
2017-09-24T06:26:49.411Z,704.00
2017-09-24T06:28:42.794Z,712.00
2017-09-24T06:29:42.822Z,720.00
2017-09-24T06:31:36.222Z,740.00
2017-09-24T06:32:36.229Z,772.00
2017-09-24T06:34:32.861Z,820.00
2017-09-24T06:35:29.644Z,868.00
2017-09-24T06:37:23.020Z,952.00
2017-09-24T06:38:23.043Z,992.00
2017-09-24T06:40:17.682Z,1060.00
2017-09-24T06:41:17.440Z,1076.00
2017-09-24T06:43:10.874Z,1216.00
2017-09-24T06:44:10.862Z,1288.00
2017-09-24T06:46:05.393Z,1288.00
2017-09-24T06:47:05.377Z,1264.00
2017-09-24T06:48:58.746Z,1276.00
2017-09-24T06:49:58.824Z,1296.00
2017-09-24T06:51:53.278Z,1320.00
2017-09-24T06:52:53.252Z,1372.00
2017-09-24T06:54:46.656Z,1404.00
2017-09-24T06:55:46.710Z,1376.00
2017-09-24T06:57:40.102Z,1308.00
2017-09-24T06:58:40.058Z,1304.00
2017-09-24T07:00:33.525Z,1352.00
2017-09-24T07:01:33.482Z,1384.00
2017-09-24T07:03:26.886Z,1444.00
2017-09-24T07:04:26.906Z,1440.00
2017-09-24T07:06:21.246Z,1388.00
2017-09-24T07:07:21.274Z,1388.00
2017-09-24T07:09:14.825Z,1440.00
2017-09-24T07:10:14.701Z,1448.00
2017-09-24T07:12:08.099Z,1572.00
2017-09-24T07:13:08.088Z,1612.00
2017-09-24T07:15:01.558Z,1644.00
2017-09-24T07:16:01.538Z,1680.00
2017-09-24T07:17:54.912Z,1792.00
2017-09-24T07:18:54.987Z,1812.00
2017-09-24T07:20:48.449Z,1764.00
2017-09-24T07:21:48.404Z,1752.00
2017-09-24T07:23:41.747Z,1764.00
2017-09-24T07:24:41.793Z,1784.00
2017-09-24T07:26:36.167Z,1828.00
2017-09-24T07:27:36.189Z,1848.00
2017-09-24T07:29:30.606Z,1900.00
2017-09-24T07:30:30.636Z,1932.00
2017-09-24T07:32:24.026Z,2024.00
2017-09-24T07:33:23.994Z,2176.00
2017-09-24T07:35:17.410Z,2424.00
2017-09-24T07:36:17.415Z,2500.00
2017-09-24T07:38:10.822Z,2664.00
2017-09-24T07:39:10.817Z,2760.00
2017-09-24T07:41:04.293Z,3076.00
2017-09-24T07:42:04.207Z,3320.00
2017-09-24T07:43:57.664Z,3504.00
2017-09-24T07:44:57.801Z,3472.00
2017-09-24T07:46:52.084Z,3240.00
2017-09-24T07:47:52.070Z,3024.00
2017-09-24T07:49:45.479Z,2768.00
2017-09-24T07:50:45.441Z,2632.00
2017-09-24T07:52:38.919Z,2620.00
2017-09-24T07:53:38.886Z,2676.00
2017-09-24T07:55:32.260Z,2916.00
2017-09-24T07:56:32.268Z,2932.00
2017-09-24T07:58:25.776Z,2788.00
2017-09-24T07:59:26.015Z,2680.00
2017-09-24T08:01:20.097Z,2572.00
2017-09-24T08:02:28.852Z,2540.00
2017-09-24T08:04:23.377Z,2420.00
2017-09-24T08:05:15.608Z,2448.00
2017-09-24T08:07:08.018Z,2436.00
2017-09-24T08:08:07.958Z,2460.00
2017-09-24T08:10:10.546Z,2448.00
2017-09-24T08:11:01.716Z,2452.00
2017-09-24T08:12:55.912Z,2492.00
2017-09-24T08:13:55.870Z,2388.00
2017-09-24T08:15:58.615Z,2284.00
2017-09-24T08:16:50.313Z,2092.00
2017-09-24T08:18:44.706Z,2000.00
2017-09-24T08:21:52.940Z,2516.00
2017-09-24T08:22:39.419Z,2776.00
2017-09-24T08:24:42.411Z,3164.00
2017-09-24T08:25:33.643Z,3272.00
2017-09-24T08:27:27.037Z,2972.00
2017-09-24T08:28:27.110Z,2736.00
2017-09-24T08:30:30.718Z,2616.00
2017-09-24T08:31:30.692Z,2740.00
2017-09-24T08:33:15.319Z,2956.00
2017-09-24T08:34:15.339Z,3008.00
2017-09-24T08:36:18.415Z,3076.00
2017-09-24T08:37:09.835Z,3116.00
2017-09-24T08:39:03.272Z,3124.00
2017-09-24T08:40:03.135Z,3124.00
2017-09-24T08:41:56.706Z,3120.00
2017-09-24T08:42:56.547Z,3148.00
2017-09-24T08:44:50.116Z,3208.00
2017-09-24T08:45:50.494Z,3292.00
2017-09-24T08:47:43.423Z,3376.00
2017-09-24T08:48:43.467Z,3440.00
2017-09-24T08:50:36.816Z,3524.00
2017-09-24T08:51:36.835Z,3576.00
2017-09-24T08:53:30.311Z,3692.00
2017-09-24T08:54:30.962Z,3792.00
2017-09-24T08:56:24.959Z,4040.00
2017-09-24T08:57:24.982Z,4188.00
2017-09-24T08:59:18.378Z,4592.00
2017-09-24T09:00:18.544Z,4740.00
2017-09-24T09:02:12.753Z,4720.00
2017-09-24T09:03:12.663Z,4588.00
2017-09-24T09:05:06.798Z,4456.00
2017-09-24T09:06:06.229Z,4516.00
2017-09-24T09:07:59.525Z,4556.00
2017-09-24T09:09:01.307Z,4596.00
2017-09-24T09:10:53.948Z,4836.00
2017-09-24T09:11:54.141Z,5012.00
2017-09-24T09:13:48.295Z,5280.00
2017-09-24T09:14:48.529Z,5416.00
2017-09-24T09:16:42.598Z,5968.00
2017-09-24T09:17:42.040Z,5796.00
2017-09-24T09:19:36.444Z,5492.00
2017-09-24T09:20:36.829Z,5672.00
2017-09-24T09:22:30.891Z,6184.00
2017-09-24T09:23:39.430Z,6000.00
2017-09-24T09:25:25.098Z,4888.00
2017-09-24T09:26:25.292Z,4284.00
2017-09-24T09:28:18.628Z,3956.00
2017-09-24T09:29:18.588Z,3912.00
2017-09-24T09:31:14.021Z,4096.00
2017-09-24T09:32:14.138Z,3972.00
2017-09-24T09:34:09.439Z,3496.00
2017-09-24T09:35:11.417Z,3196.00
2017-09-24T09:37:04.955Z,3236.00
2017-09-24T09:38:03.839Z,3364.00
2017-09-24T09:39:59.095Z,3952.00
2017-09-24T09:40:58.547Z,4952.00
2017-09-24T09:42:52.226Z,5856.00
2017-09-24T09:43:51.747Z,5808.00
2017-09-24T09:45:47.272Z,5684.00
2017-09-24T09:46:47.332Z,5692.00
2017-09-24T09:48:40.553Z,5740.00
2017-09-24T09:49:40.616Z,5752.00
2017-09-24T09:51:35.091Z,5920.00
2017-09-24T09:52:35.259Z,6040.00
2017-09-24T09:54:29.554Z,6200.00
2017-09-24T09:55:29.443Z,6208.00
2017-09-24T09:57:34.116Z,6236.00
2017-09-24T09:58:25.182Z,6252.00
2017-09-24T10:00:18.604Z,6256.00
2017-09-24T10:01:18.388Z,6280.00
2017-09-24T10:03:12.243Z,6248.00
2017-09-24T10:04:12.057Z,6192.00
2017-09-24T10:06:05.554Z,6208.00
2017-09-24T10:07:05.388Z,6192.00
2017-09-24T10:08:59.857Z,6308.00
2017-09-24T10:10:00.050Z,6432.00
2017-09-24T10:11:54.271Z,12528.00
2017-09-24T10:12:54.266Z,20096.00
2017-09-24T10:14:48.015Z,22560.00
2017-09-24T10:15:48.489Z,24256.00
2017-09-24T10:17:42.255Z,24704.00
2017-09-24T10:18:42.242Z,26080.00
2017-09-24T10:20:36.571Z,27456.00
2017-09-24T10:21:36.577Z,28544.00
2017-09-24T10:23:30.822Z,30560.00
2017-09-24T10:24:30.747Z,31136.00
2017-09-24T10:26:25.093Z,30112.00
2017-09-24T10:27:25.118Z,28864.00
2017-09-24T10:29:18.490Z,7952.00
2017-09-24T10:30:18.457Z,6408.00
2017-09-24T10:32:11.820Z,35776.00
2017-09-24T10:33:11.957Z,36128.00
2017-09-24T10:35:05.319Z,36832.00
2017-09-24T10:36:05.350Z,36352.00
2017-09-24T10:37:58.741Z,35776.00
2017-09-24T10:38:58.750Z,36864.00
2017-09-24T10:40:52.195Z,38784.00
2017-09-24T10:41:52.235Z,10336.00
2017-09-24T10:43:45.820Z,4896.00
2017-09-24T10:44:45.768Z,4168.00
2017-09-24T10:46:39.085Z,3700.00
2017-09-24T10:47:39.108Z,5776.00
2017-09-24T10:49:32.509Z,17184.00
2017-09-24T10:50:32.586Z,23808.00
2017-09-24T10:52:27.036Z,36960.00
2017-09-24T10:53:26.981Z,10620.00
2017-09-24T10:55:21.477Z,35136.00
2017-09-24T10:56:21.409Z,35328.00
2017-09-24T10:58:14.913Z,30432.00
2017-09-24T10:59:14.934Z,33728.00
2017-09-24T11:01:08.304Z,29344.00
2017-09-24T11:02:08.296Z,27840.00
2017-09-24T11:04:01.714Z,27072.00
2017-09-24T11:05:01.805Z,23552.00
2017-09-24T11:06:55.192Z,31008.00
2017-09-24T11:07:55.205Z,25952.00
2017-09-24T11:09:48.535Z,27808.00
2017-09-24T11:10:48.576Z,27040.00
2017-09-24T11:12:42.210Z,25344.00
2017-09-24T11:13:42.154Z,29600.00
2017-09-24T11:15:35.901Z,33184.00
2017-09-24T11:16:35.836Z,29664.00
2017-09-24T11:18:30.863Z,42208.00
2017-09-24T11:19:29.317Z,35232.00
2017-09-24T11:21:23.622Z,31776.00
2017-09-24T11:22:23.686Z,26720.00
2017-09-24T11:24:17.088Z,22144.00
2017-09-24T11:25:17.141Z,21696.00
2017-09-24T11:27:10.567Z,26688.00
2017-09-24T11:28:10.838Z,11816.00
2017-09-24T11:30:04.033Z,15040.00
2017-09-24T11:31:03.976Z,23808.00
2017-09-24T11:32:57.446Z,28608.00
2017-09-24T11:33:57.448Z,23232.00
2017-09-24T11:35:50.837Z,27008.00
2017-09-24T11:36:50.836Z,23488.00
2017-09-24T11:38:44.236Z,7820.00
2017-09-24T11:39:44.271Z,15104.00
2017-09-24T11:41:38.731Z,16032.00
2017-09-24T11:42:38.690Z,14224.00
2017-09-24T11:44:32.176Z,16896.00
2017-09-24T11:45:32.137Z,19616.00
2017-09-24T11:47:25.584Z,18240.00
2017-09-24T11:48:25.633Z,17760.00
2017-09-24T11:50:19.091Z,11380.00
2017-09-24T11:51:18.974Z,10892.00
2017-09-24T11:53:12.371Z,8572.00
2017-09-24T11:54:12.446Z,8016.00
2017-09-24T11:56:05.839Z,4908.00
2017-09-24T11:57:05.866Z,5376.00
2017-09-24T11:58:59.274Z,10684.00
2017-09-24T11:59:59.271Z,10820.00
2017-09-24T12:01:52.711Z,10080.00
2017-09-24T12:02:52.772Z,9432.00
2017-09-24T12:04:46.213Z,9140.00
2017-09-24T12:05:46.176Z,9180.00
2017-09-24T12:07:39.627Z,6320.00
2017-09-24T12:08:39.611Z,6860.00
2017-09-24T12:10:33.049Z,9660.00
2017-09-24T12:11:33.073Z,9744.00
2017-09-24T12:13:26.448Z,10224.00
2017-09-24T12:14:26.480Z,10316.00
2017-09-24T12:16:19.865Z,11040.00
2017-09-24T12:17:20.260Z,11684.00
2017-09-24T12:19:13.312Z,4812.00
2017-09-24T12:20:13.361Z,4408.00
2017-09-24T12:22:06.786Z,3696.00
2017-09-24T12:23:06.829Z,3272.00
2017-09-24T12:25:00.204Z,3036.00
2017-09-24T12:26:00.252Z,3156.00
2017-09-24T12:27:54.630Z,3336.00
2017-09-24T12:28:54.672Z,3304.00
2017-09-24T12:30:49.000Z,2908.00
2017-09-24T12:31:49.077Z,2800.00
2017-09-24T12:33:42.671Z,2800.00
2017-09-24T12:34:42.488Z,2744.00
2017-09-24T12:36:36.242Z,2720.00
2017-09-24T12:37:35.968Z,2792.00
2017-09-24T12:39:29.351Z,3168.00
2017-09-24T12:40:29.304Z,3440.00
2017-09-24T12:42:22.969Z,3460.00
2017-09-24T12:43:22.784Z,3600.00
2017-09-24T12:45:16.344Z,3848.00
2017-09-24T12:46:16.288Z,4016.00
2017-09-24T12:48:10.537Z,4140.00
2017-09-24T12:49:09.665Z,4092.00
2017-09-24T12:51:03.213Z,3880.00
2017-09-24T12:52:03.177Z,4280.00
2017-09-24T12:53:56.647Z,5548.00
2017-09-24T12:54:56.543Z,5428.00
2017-09-24T12:56:49.974Z,5496.00
2017-09-24T12:57:50.018Z,5676.00
2017-09-24T12:59:44.467Z,8528.00
2017-09-24T13:00:44.486Z,8416.00
2017-09-24T13:02:37.849Z,9452.00
2017-09-24T13:03:37.833Z,9604.00
2017-09-24T13:05:31.260Z,9228.00
2017-09-24T13:06:31.326Z,8856.00
2017-09-24T13:08:24.778Z,7820.00
2017-09-24T13:09:24.720Z,7564.00
2017-09-24T13:11:17.759Z,7036.00
2017-09-24T13:12:17.772Z,6868.00
2017-09-24T13:14:11.241Z,6492.00
2017-09-24T13:15:11.275Z,6416.00
2017-09-24T13:17:04.630Z,6552.00
2017-09-24T13:18:04.671Z,6648.00
2017-09-24T13:19:59.063Z,6748.00
2017-09-24T13:20:59.094Z,6676.00
2017-09-24T13:22:52.457Z,6560.00
2017-09-24T13:23:52.508Z,6588.00
2017-09-24T13:25:46.045Z,6568.00
2017-09-24T13:26:45.904Z,6416.00
2017-09-24T13:28:39.373Z,6240.00
2017-09-24T13:29:39.391Z,6160.00
2017-09-24T13:31:32.931Z,6524.00
2017-09-24T13:32:32.732Z,6392.00
2017-09-24T13:34:26.212Z,6500.00
2017-09-24T13:35:26.172Z,6484.00
2017-09-24T13:37:19.623Z,6500.00
2017-09-24T13:38:19.579Z,6532.00
2017-09-24T13:40:14.017Z,6600.00
2017-09-24T13:41:14.122Z,6796.00
2017-09-24T13:43:07.464Z,6796.00
2017-09-24T13:44:07.427Z,6916.00
2017-09-24T13:46:00.875Z,5668.00
2017-09-24T13:47:00.878Z,5152.00
2017-09-24T13:48:54.269Z,5848.00
2017-09-24T13:49:54.258Z,4200.00
2017-09-24T13:51:47.682Z,3748.00
2017-09-24T13:52:47.718Z,3400.00
2017-09-24T13:54:41.130Z,3232.00
2017-09-24T13:55:41.181Z,3164.00
2017-09-24T13:57:35.588Z,3160.00
2017-09-24T13:58:35.584Z,3236.00
2017-09-24T14:00:30.040Z,3320.00
2017-09-24T14:01:30.072Z,3340.00
2017-09-24T14:03:24.597Z,3456.00
2017-09-24T14:04:24.497Z,3528.00
2017-09-24T14:06:18.933Z,3544.00
2017-09-24T14:07:18.890Z,3564.00
2017-09-24T14:09:12.297Z,3580.00
2017-09-24T14:10:12.309Z,3504.00
2017-09-24T14:12:05.774Z,3300.00
2017-09-24T14:13:05.717Z,3224.00
2017-09-24T14:14:59.171Z,3020.00
2017-09-24T14:15:59.220Z,2852.00
2017-09-24T14:17:53.688Z,2424.00
2017-09-24T14:18:53.620Z,2264.00
2017-09-24T14:20:49.024Z,1848.00
2017-09-24T14:21:49.050Z,1656.00
2017-09-24T14:23:42.467Z,1196.00
2017-09-24T14:24:42.498Z,988.00
2017-09-24T14:26:35.931Z,728.00
2017-09-24T14:27:35.851Z,640.00
2017-09-24T14:29:30.410Z,528.00
2017-09-24T14:30:30.295Z,488.00
2017-09-24T14:32:23.682Z,416.00
2017-09-24T14:33:23.722Z,396.00
2017-09-24T14:35:17.168Z,368.00
2017-09-24T14:36:17.127Z,360.00
2017-09-24T14:38:11.571Z,364.00
2017-09-24T14:39:11.572Z,360.00
2017-09-24T14:41:06.045Z,332.00
2017-09-24T14:42:05.980Z,316.00
2017-09-24T14:44:00.395Z,284.00
2017-09-24T14:45:00.417Z,272.00
2017-09-24T14:47:03.440Z,248.00
2017-09-24T14:47:55.022Z,228.00
2017-09-24T14:49:48.260Z,180.00
2017-09-24T14:50:48.242Z,160.00
2017-09-24T14:52:41.664Z,136.00
2017-09-24T14:53:41.627Z,124.00
2017-09-24T14:55:36.113Z,108.00
2017-09-24T14:56:36.038Z,104.00
2017-09-24T14:58:30.452Z,100.00
2017-09-24T14:59:30.450Z,104.00
2017-09-24T15:01:24.888Z,108.00
2017-09-24T15:02:24.853Z,104.00
2017-09-24T15:04:18.242Z,100.00
2017-09-24T15:05:18.286Z,104.00
2017-09-24T15:07:12.727Z,112.00
2017-09-24T15:08:12.655Z,120.00
2017-09-24T15:10:07.066Z,148.00
2017-09-24T15:11:07.094Z,160.00
2017-09-24T15:13:01.542Z,180.00
2017-09-24T15:14:01.512Z,176.00
2017-09-24T15:15:54.917Z,176.00
2017-09-24T15:16:54.933Z,176.00
2017-09-24T15:18:49.480Z,168.00
2017-09-24T15:19:49.396Z,168.00
2017-09-24T15:21:42.734Z,172.00
2017-09-24T15:22:42.751Z,172.00
2017-09-24T15:24:36.176Z,176.00
2017-09-24T15:25:36.148Z,180.00
2017-09-24T15:27:29.549Z,188.00
2017-09-24T15:28:29.589Z,192.00
2017-09-24T15:30:23.016Z,184.00
2017-09-24T15:31:23.006Z,180.00
2017-09-24T15:33:16.386Z,176.00
2017-09-24T15:34:16.400Z,180.00
2017-09-24T15:36:09.792Z,200.00
2017-09-24T15:37:09.800Z,224.00
2017-09-24T15:39:04.235Z,292.00
2017-09-24T15:40:04.210Z,332.00
2017-09-24T15:41:58.579Z,424.00
2017-09-24T15:42:58.595Z,456.00
2017-09-24T15:44:52.017Z,488.00
2017-09-24T15:45:52.000Z,496.00
2017-09-24T15:47:46.404Z,528.00
2017-09-24T15:48:46.416Z,540.00
2017-09-24T15:50:40.907Z,536.00
2017-09-24T15:51:40.814Z,520.00
2017-09-24T15:53:34.271Z,500.00
2017-09-24T15:54:34.252Z,496.00
2017-09-24T15:56:28.640Z,488.00
2017-09-24T15:57:28.627Z,480.00
2017-09-24T15:59:22.039Z,460.00
2017-09-24T16:00:22.044Z,452.00
2017-09-24T16:02:15.507Z,428.00
2017-09-24T16:03:15.746Z,424.00
2017-09-24T16:05:08.880Z,428.00
2017-09-24T16:06:08.874Z,436.00
2017-09-24T16:08:02.297Z,472.00
2017-09-24T16:09:02.279Z,488.00
2017-09-24T16:10:55.683Z,504.00
2017-09-24T16:11:55.684Z,508.00
2017-09-24T16:13:49.127Z,488.00
2017-09-24T16:14:49.095Z,468.00
2017-09-24T16:16:42.542Z,424.00
2017-09-24T16:17:42.527Z,416.00
2017-09-24T16:19:35.933Z,420.00
2017-09-24T16:20:35.899Z,432.00
2017-09-24T16:22:29.299Z,460.00
2017-09-24T16:23:29.307Z,464.00
2017-09-24T16:25:22.767Z,456.00
2017-09-24T16:26:22.725Z,444.00
2017-09-24T16:28:16.134Z,404.00
2017-09-24T16:29:16.167Z,388.00
2017-09-24T16:31:09.589Z,372.00
2017-09-24T16:32:09.544Z,364.00
2017-09-24T16:34:02.940Z,364.00
2017-09-24T16:35:02.969Z,372.00
2017-09-24T16:36:56.383Z,364.00
2017-09-24T16:37:56.365Z,352.00
2017-09-24T16:39:49.780Z,324.00
2017-09-24T16:40:49.777Z,304.00
2017-09-24T16:42:43.400Z,276.00
2017-09-24T16:43:43.208Z,260.00
2017-09-24T16:45:36.598Z,228.00
2017-09-24T16:46:36.580Z,212.00
2017-09-24T16:48:30.020Z,180.00
2017-09-24T16:49:29.994Z,168.00
2017-09-24T16:51:24.638Z,148.00
2017-09-24T16:52:24.586Z,132.00
2017-09-24T16:54:17.977Z,120.00
2017-09-24T16:55:17.992Z,112.00
2017-09-24T16:57:12.413Z,104.00
2017-09-24T16:58:12.412Z,100.00
2017-09-24T17:00:05.774Z,88.00
2017-09-24T17:01:05.807Z,84.00
2017-09-24T17:03:00.280Z,72.00
2017-09-24T17:04:00.237Z,68.00
2017-09-24T17:05:54.653Z,56.00
2017-09-24T17:06:54.690Z,56.00
2017-09-24T17:08:48.125Z,48.00
2017-09-24T17:09:48.135Z,40.00
2017-09-24T17:11:41.962Z,32.00
2017-09-24T17:12:41.584Z,28.00
2017-09-24T17:14:36.014Z,20.00
2017-09-24T17:15:36.031Z,20.00
2017-09-24T17:17:29.519Z,16.00
2017-09-24T17:18:29.431Z,12.00
2017-09-24T17:20:22.908Z,8.00
2017-09-24T17:21:22.835Z,8.00
2017-09-24T17:23:15.984Z,8.00
2017-09-24T17:24:15.947Z,8.00
2017-09-24T17:26:09.936Z,4.00
2017-09-24T17:27:09.993Z,4.00
2017-09-24T17:29:04.469Z,4.00
2017-09-24T17:30:04.385Z,0.00
2017-09-24T17:31:58.108Z,4.00
2017-09-24T17:33:06.459Z,4.00
2017-09-24T17:34:51.212Z,0.00
2017-09-24T17:35:51.207Z,0.00
2017-09-24T17:37:45.640Z,0.00
2017-09-24T17:38:45.622Z,0.00
2017-09-24T17:40:40.043Z,0.00
2017-09-24T17:41:40.106Z,0.00
2017-09-24T17:43:33.414Z,0.00
2017-09-24T17:44:33.486Z,0.00
2017-09-24T17:46:27.928Z,0.00
2017-09-24T17:47:27.915Z,0.00
2017-09-24T17:49:22.507Z,0.00
2017-09-24T17:50:22.333Z,0.00
2017-09-24T17:52:16.837Z,0.00
2017-09-24T17:53:16.883Z,0.00
2017-09-24T17:55:12.199Z,0.00
2017-09-24T17:56:12.249Z,0.00
2017-09-24T17:58:06.662Z,0.00
2017-09-24T17:59:06.654Z,0.00
2017-09-24T18:01:01.075Z,0.00
2017-09-24T18:02:01.060Z,0.00
2017-09-24T18:03:55.482Z,0.00
2017-09-24T18:04:55.460Z,0.00
2017-09-24T18:06:49.788Z,0.00
2017-09-24T18:07:49.907Z,0.00
2017-09-24T18:09:43.183Z,0.00
2017-09-24T18:10:43.232Z,0.00